createdAt,value
2018-04-13T00:01:27.282Z,1.73
2018-04-13T00:03:55.685Z,2.45
2018-04-13T00:06:24.839Z,2.10
2018-04-13T00:08:53.537Z,2.10
2018-04-13T00:11:21.921Z,1.90
2018-04-13T00:13:50.313Z,2.42
2018-04-13T00:16:18.716Z,2.70
2018-04-13T00:18:47.097Z,2.40
2018-04-13T00:21:15.502Z,2.20
2018-04-13T00:23:43.880Z,2.45
2018-04-13T00:26:12.292Z,1.90
2018-04-13T00:28:40.697Z,2.62
2018-04-13T00:31:09.847Z,2.15
2018-04-13T00:33:38.256Z,2.72
2018-04-13T00:36:06.635Z,1.98
2018-04-13T00:38:35.041Z,3.15
2018-04-13T00:41:04.191Z,2.08
2018-04-13T00:43:32.599Z,2.62
2018-04-13T00:46:01.759Z,2.37
2018-04-13T00:48:30.145Z,1.60
2018-04-13T00:50:58.545Z,3.05
2018-04-13T00:53:29.893Z,2.55
2018-04-13T00:55:59.089Z,2.22
2018-04-13T00:58:27.473Z,1.58
2018-04-13T01:00:56.091Z,2.28
2018-04-13T01:03:25.740Z,2.20
2018-04-13T01:05:54.290Z,2.70
2018-04-13T01:08:22.720Z,2.45
2018-04-13T01:10:51.106Z,2.10
2018-04-13T01:13:19.532Z,1.75
2018-04-13T01:15:47.907Z,1.92
2018-04-13T01:18:16.861Z,2.60
2018-04-13T01:20:46.535Z,1.70
2018-04-13T01:23:16.118Z,1.90
2018-04-13T01:25:45.112Z,2.25
2018-04-13T01:28:14.288Z,2.00
2018-04-13T01:30:44.289Z,1.98
2018-04-13T01:33:13.929Z,2.92
2018-04-13T01:35:43.849Z,2.35
2018-04-13T01:38:13.619Z,1.50
2018-04-13T01:40:43.273Z,1.40
2018-04-13T01:43:11.673Z,1.73
2018-04-13T01:45:40.062Z,1.95
2018-04-13T01:48:08.473Z,2.30
2018-04-13T01:50:37.624Z,2.25
2018-04-13T01:53:06.040Z,2.75
2018-04-13T01:55:35.195Z,2.03
2018-04-13T01:58:03.593Z,2.37
2018-04-13T02:00:31.971Z,2.70
2018-04-13T02:03:00.405Z,2.55
2018-04-13T02:05:28.793Z,2.60
2018-04-13T02:07:57.182Z,2.15
2018-04-13T02:10:25.592Z,1.98
2018-04-13T02:12:53.980Z,2.50
2018-04-13T02:15:22.403Z,1.85
2018-04-13T02:17:50.798Z,1.60
2018-04-13T02:20:19.485Z,3.45
2018-04-13T02:22:47.865Z,2.33
2018-04-13T02:25:16.239Z,2.65
2018-04-13T02:27:44.642Z,2.87
2018-04-13T02:30:13.021Z,2.30
2018-04-13T02:32:41.436Z,2.30
2018-04-13T02:35:10.586Z,1.85
2018-04-13T02:37:39.370Z,2.42
2018-04-13T02:40:07.770Z,3.00
2018-04-13T02:42:36.152Z,2.67
2018-04-13T02:45:04.577Z,2.95
2018-04-13T02:47:32.979Z,2.30
2018-04-13T02:50:01.517Z,2.45
2018-04-13T02:52:30.685Z,2.92
2018-04-13T02:54:59.105Z,1.52
2018-04-13T02:57:27.517Z,2.00
2018-04-13T02:59:55.892Z,1.83
2018-04-13T03:02:24.292Z,2.25
2018-04-13T03:04:52.682Z,1.80
2018-04-13T03:07:21.112Z,2.40
2018-04-13T03:09:49.494Z,2.92
2018-04-13T03:12:18.194Z,1.40
2018-04-13T03:14:46.574Z,1.90
2018-04-13T03:17:14.957Z,2.20
2018-04-13T03:19:43.369Z,3.47
2018-04-13T03:22:11.749Z,2.67
2018-04-13T03:24:40.164Z,2.12
2018-04-13T03:27:08.544Z,2.90
2018-04-13T03:29:37.249Z,2.15
2018-04-13T03:32:05.645Z,1.98
2018-04-13T03:34:34.025Z,2.30
2018-04-13T03:37:02.433Z,2.10
2018-04-13T03:39:31.592Z,2.25
2018-04-13T03:42:00.173Z,1.92
2018-04-13T03:44:28.560Z,1.92
2018-04-13T03:46:57.725Z,2.28
2018-04-13T03:49:26.106Z,2.15
2018-04-13T03:51:54.485Z,1.80
2018-04-13T03:54:22.887Z,1.80
2018-04-13T03:56:51.279Z,2.30
2018-04-13T03:59:19.685Z,2.37
2018-04-13T04:01:48.849Z,2.45
2018-04-13T04:04:17.273Z,1.80
2018-04-13T04:06:45.683Z,1.98
2018-04-13T04:09:14.975Z,2.08
2018-04-13T04:11:43.376Z,2.28
2018-04-13T04:14:11.759Z,2.40
2018-04-13T04:16:40.168Z,2.10
2018-04-13T04:19:09.319Z,2.30
2018-04-13T04:21:55.474Z,2.10
2018-04-13T04:24:42.535Z,3.10
2018-04-13T04:27:12.419Z,2.80
2018-04-13T04:29:41.107Z,1.60
2018-04-13T04:32:09.745Z,1.60
2018-04-13T04:34:38.152Z,1.70
2018-04-13T04:37:07.301Z,1.60
2018-04-13T04:39:35.729Z,2.50
2018-04-13T04:42:04.889Z,1.50
2018-04-13T04:44:33.299Z,2.37
2018-04-13T04:47:02.454Z,1.70
2018-04-13T04:49:31.141Z,1.50
2018-04-13T04:51:59.604Z,2.00
2018-04-13T04:54:27.980Z,1.73
2018-04-13T04:56:56.379Z,1.50
2018-04-13T04:59:24.756Z,1.50
2018-04-13T05:01:53.171Z,1.50
2018-04-13T05:04:22.320Z,1.55
2018-04-13T05:06:50.838Z,1.35
2018-04-13T05:09:19.208Z,1.62
2018-04-13T05:11:47.600Z,1.70
2018-04-13T05:14:15.997Z,2.20
2018-04-13T05:16:45.141Z,1.80
2018-04-13T05:19:13.551Z,1.73
2018-04-13T05:21:42.713Z,2.45
2018-04-13T05:24:11.177Z,1.52
2018-04-13T05:26:39.555Z,2.47
2018-04-13T05:29:07.919Z,1.35
2018-04-13T05:31:36.341Z,1.55
2018-04-13T05:34:04.729Z,1.40
2018-04-13T05:36:33.159Z,1.95
2018-04-13T05:39:01.548Z,1.62
2018-04-13T05:41:30.168Z,1.87
2018-04-13T05:43:58.601Z,1.35
2018-04-13T05:46:27.003Z,2.50
2018-04-13T05:48:55.413Z,1.58
2018-04-13T05:51:23.955Z,1.65
2018-04-13T05:53:52.377Z,1.95
2018-04-13T05:56:20.761Z,1.55
2018-04-13T05:58:49.525Z,1.67
2018-04-13T06:01:17.913Z,2.20
2018-04-13T06:03:46.293Z,2.08
2018-04-13T06:06:14.751Z,2.00
2018-04-13T06:08:43.129Z,2.10
2018-04-13T06:11:11.533Z,2.05
2018-04-13T06:13:39.904Z,1.35
2018-04-13T06:16:08.341Z,1.85
2018-04-13T06:18:36.715Z,1.73
2018-04-13T06:21:05.089Z,1.27
2018-04-13T06:23:33.493Z,2.00
2018-04-13T06:26:01.877Z,1.70
2018-04-13T06:28:30.285Z,1.17
2018-04-13T06:30:58.660Z,1.23
2018-04-13T06:33:27.180Z,1.15
2018-04-13T06:35:55.571Z,0.85
2018-04-13T06:38:23.960Z,0.90
2018-04-13T06:40:52.369Z,1.10
2018-04-13T06:43:20.749Z,0.80
2018-04-13T06:45:49.150Z,0.80
2018-04-13T06:48:17.537Z,1.00
2018-04-13T06:50:46.804Z,0.93
2018-04-13T06:53:15.205Z,1.15
2018-04-13T06:55:43.589Z,0.65
2018-04-13T06:58:12.772Z,0.43
2018-04-13T07:00:41.169Z,0.93
2018-04-13T07:03:11.016Z,0.60
2018-04-13T07:05:39.398Z,0.80
2018-04-13T07:08:08.005Z,0.75
2018-04-13T07:10:36.393Z,0.95
2018-04-13T07:13:04.781Z,0.85
2018-04-13T07:15:33.192Z,0.98
2018-04-13T07:18:02.339Z,0.82
2018-04-13T07:20:30.751Z,1.10
2018-04-13T07:22:59.132Z,0.98
2018-04-13T07:25:28.330Z,0.70
2018-04-13T07:27:57.475Z,0.68
2018-04-13T07:30:25.878Z,0.47
2018-04-13T07:32:54.296Z,0.68
2018-04-13T07:35:23.457Z,0.90
2018-04-13T07:37:51.857Z,0.57
2018-04-13T07:40:21.021Z,0.82
2018-04-13T07:42:49.711Z,0.52
2018-04-13T07:45:18.580Z,0.40
2018-04-13T07:47:46.966Z,0.65
2018-04-13T07:50:15.384Z,0.75
2018-04-13T07:52:44.537Z,0.68
2018-04-13T07:55:12.951Z,0.65
2018-04-13T07:57:41.337Z,0.75
2018-04-13T08:00:10.077Z,0.93
2018-04-13T08:02:38.488Z,0.40
2018-04-13T08:05:06.886Z,0.43
2018-04-13T08:07:36.081Z,0.50
2018-04-13T08:10:05.244Z,0.65
2018-04-13T08:12:33.850Z,0.40
2018-04-13T08:15:02.236Z,0.50
2018-04-13T08:17:30.645Z,0.70
2018-04-13T08:19:59.036Z,0.40
2018-04-13T08:22:27.545Z,0.90
2018-04-13T08:24:55.951Z,0.93
2018-04-13T08:27:24.354Z,0.45
2018-04-13T08:29:52.809Z,0.68
2018-04-13T08:32:21.205Z,0.70
2018-04-13T08:34:50.405Z,0.90
2018-04-13T08:37:19.553Z,0.50
2018-04-13T08:39:47.932Z,0.50
2018-04-13T08:42:16.341Z,0.40
2018-04-13T08:44:44.766Z,0.60
2018-04-13T08:47:13.164Z,0.40
2018-04-13T08:49:41.550Z,0.60
2018-04-13T08:52:10.236Z,0.40
2018-04-13T08:54:38.614Z,0.77
2018-04-13T08:57:06.993Z,0.40
2018-04-13T08:59:35.400Z,0.37
2018-04-13T09:02:03.795Z,0.30
2018-04-13T09:04:32.963Z,0.60
2018-04-13T09:07:01.368Z,0.40
2018-04-13T09:09:30.574Z,0.53
2018-04-13T09:11:58.954Z,0.60
2018-04-13T09:14:27.354Z,0.63
2018-04-13T09:16:55.754Z,1.33
2018-04-13T09:19:24.138Z,0.43
2018-04-13T09:21:52.542Z,0.40
2018-04-13T09:24:20.928Z,0.50
2018-04-13T09:26:49.473Z,0.47
2018-04-13T09:29:17.861Z,0.80
2018-04-13T09:31:46.252Z,0.70
2018-04-13T09:34:14.668Z,0.73
2018-04-13T09:36:43.052Z,0.50
2018-04-13T09:39:11.457Z,0.50
2018-04-13T09:41:39.837Z,0.60
2018-04-13T09:44:08.325Z,0.63
2018-04-13T09:46:36.704Z,0.77
2018-04-13T09:49:05.099Z,0.70
2018-04-13T09:51:33.548Z,0.40
2018-04-13T09:54:01.946Z,0.50
2018-04-13T09:56:30.397Z,1.60
2018-04-13T09:58:58.819Z,0.73
2018-04-13T10:01:27.330Z,0.83
2018-04-13T10:06:59.717Z,0.90
2018-04-13T10:09:28.884Z,0.60
2018-04-13T10:11:57.554Z,0.40
2018-04-13T10:14:25.935Z,0.80
2018-04-13T10:16:54.312Z,0.40
2018-04-13T10:19:22.734Z,0.60
2018-04-13T10:21:51.887Z,0.90
2018-04-13T10:24:20.418Z,0.60
2018-04-13T10:26:49.587Z,1.13
2018-04-13T10:29:18.024Z,1.33
2018-04-13T10:31:46.401Z,1.17
2018-04-13T10:34:14.790Z,1.10
2018-04-13T10:36:43.208Z,1.00
2018-04-13T10:39:11.592Z,1.87
2018-04-13T10:41:39.998Z,2.77
2018-04-13T10:44:08.381Z,3.03
2018-04-13T10:46:36.797Z,3.77
2018-04-13T10:49:05.174Z,3.87
2018-04-13T10:51:33.552Z,3.37
2018-04-13T10:54:01.960Z,3.43
2018-04-13T10:56:30.343Z,3.10
2018-04-13T10:58:59.538Z,2.67
2018-04-13T11:01:27.919Z,3.10
2018-04-13T11:03:56.770Z,2.67
2018-04-13T11:06:25.141Z,2.53
2018-04-13T11:08:53.516Z,2.80
2018-04-13T11:11:21.952Z,2.53
2018-04-13T11:13:51.115Z,2.53
2018-04-13T11:16:19.525Z,2.23
2018-04-13T11:18:47.904Z,3.27
2018-04-13T11:21:17.103Z,2.50
2018-04-13T11:23:45.485Z,3.10
2018-04-13T11:26:14.637Z,2.93
2018-04-13T11:28:43.092Z,2.77
2018-04-13T11:31:11.491Z,3.07
2018-04-13T11:33:39.900Z,3.17
2018-04-13T11:36:09.829Z,2.67
2018-04-13T11:38:38.568Z,2.20
2018-04-13T11:41:06.949Z,2.23
2018-04-13T11:43:35.336Z,3.00
2018-04-13T11:46:03.744Z,2.60
2018-04-13T11:48:32.132Z,3.50
2018-04-13T11:51:00.549Z,2.67
2018-04-13T11:53:28.927Z,2.30
2018-04-13T11:55:57.330Z,3.20
2018-04-13T11:58:25.721Z,3.10
2018-04-13T12:00:54.142Z,2.60
2018-04-13T12:03:22.533Z,3.13
2018-04-13T12:05:50.955Z,2.30
2018-04-13T12:08:19.354Z,2.70
2018-04-13T12:10:48.745Z,2.40
2018-04-13T12:13:17.126Z,3.20
2018-04-13T12:15:45.554Z,3.53
2018-04-13T12:18:13.935Z,3.97
2018-04-13T12:20:42.345Z,3.87
2018-04-13T12:23:10.752Z,3.20
2018-04-13T12:25:39.406Z,3.70
2018-04-13T12:28:07.793Z,3.23
2018-04-13T12:30:36.193Z,2.70
2018-04-13T12:33:04.628Z,2.40
2018-04-13T12:35:33.005Z,3.63
2018-04-13T12:38:01.408Z,2.43
2018-04-13T12:40:29.785Z,2.23
2018-04-13T12:42:58.460Z,2.83
2018-04-13T12:45:26.849Z,3.17
2018-04-13T12:47:55.244Z,3.40
2018-04-13T12:50:23.704Z,2.50
2018-04-13T12:52:52.156Z,2.30
2018-04-13T12:55:20.574Z,1.60
2018-04-13T12:57:48.956Z,1.90
2018-04-13T13:00:17.727Z,1.70
2018-04-13T13:02:46.201Z,1.40
2018-04-13T13:05:14.585Z,1.20
2018-04-13T13:07:43.678Z,1.40
2018-04-13T13:10:12.102Z,1.53
2018-04-13T13:12:41.280Z,2.10
2018-04-13T13:15:09.671Z,1.37
2018-04-13T13:17:38.111Z,1.60
2018-04-13T13:20:06.823Z,1.03
2018-04-13T13:22:35.268Z,1.70
2018-04-13T13:25:04.408Z,1.70
2018-04-13T13:27:32.797Z,1.40
2018-04-13T13:30:01.976Z,1.47
2018-04-13T13:32:30.465Z,1.53
2018-04-13T13:34:58.904Z,1.53
2018-04-13T13:37:27.295Z,1.77
2018-04-13T13:39:55.680Z,2.00
2018-04-13T13:42:24.084Z,1.47
2018-04-13T13:44:53.241Z,1.93
2018-04-13T13:47:21.640Z,1.17
2018-04-13T13:49:50.021Z,1.93
2018-04-13T13:52:18.682Z,1.97
2018-04-13T13:54:47.081Z,5.30
2018-04-13T13:57:15.489Z,8.60
2018-04-13T13:59:44.668Z,8.33
2018-04-13T14:02:13.813Z,8.13
2018-04-13T14:04:42.233Z,7.40
2018-04-13T14:07:10.628Z,7.00
2018-04-13T14:09:39.390Z,6.17
2018-04-13T14:12:07.777Z,4.93
2018-04-13T14:14:36.169Z,4.00
2018-04-13T14:17:05.437Z,3.90
2018-04-13T14:19:33.819Z,3.47
2018-04-13T14:22:02.241Z,3.03
2018-04-13T14:24:31.545Z,3.30
2018-04-13T14:27:01.114Z,2.60
2018-04-13T14:29:29.593Z,2.20
2018-04-13T14:31:57.981Z,3.12
2018-04-13T14:34:26.427Z,2.17
2018-04-13T14:36:54.805Z,2.15
2018-04-13T14:39:23.233Z,2.67
2018-04-13T14:41:51.629Z,3.28
2018-04-13T14:44:20.844Z,2.55
2018-04-13T14:46:49.239Z,2.15
2018-04-13T14:49:17.645Z,2.80
2018-04-13T14:51:46.053Z,2.70
2018-04-13T14:54:15.196Z,2.90
2018-04-13T14:56:43.605Z,2.65
2018-04-13T14:59:12.020Z,3.45
2018-04-13T15:01:41.297Z,3.22
2018-04-13T15:04:09.685Z,4.50
2018-04-13T15:06:38.841Z,3.30
2018-04-13T15:09:07.422Z,3.45
2018-04-13T15:11:35.813Z,3.10
2018-04-13T15:14:04.226Z,3.80
2018-04-13T15:16:33.393Z,3.65
2018-04-13T15:19:01.819Z,3.55
2018-04-13T15:21:30.986Z,3.47
2018-04-13T15:23:59.370Z,3.58
2018-04-13T15:26:27.774Z,5.32
2018-04-13T15:28:56.157Z,4.50
2018-04-13T15:31:24.566Z,4.47
2018-04-13T15:33:52.942Z,4.80
2018-04-13T15:36:21.497Z,4.75
2018-04-13T15:38:49.872Z,4.75
2018-04-13T15:41:18.254Z,5.28
2018-04-13T15:43:46.661Z,4.28
2018-04-13T15:46:15.043Z,4.30
2018-04-13T15:48:43.454Z,4.70
2018-04-13T15:51:12.649Z,5.28
2018-04-13T15:53:41.305Z,5.03
2018-04-13T15:56:22.263Z,3.95
2018-04-13T15:58:52.397Z,4.53
2018-04-13T16:01:24.082Z,3.87
2018-04-13T16:03:52.598Z,4.47
2018-04-13T16:06:21.022Z,4.18
2018-04-13T16:08:49.407Z,3.37
2018-04-13T16:11:17.828Z,3.83
2018-04-13T16:13:46.281Z,4.30
2018-04-13T16:16:14.739Z,4.03
2018-04-13T16:18:43.116Z,3.75
2018-04-13T16:21:11.702Z,4.15
2018-04-13T16:23:40.112Z,4.00
2018-04-13T16:26:09.487Z,4.60
2018-04-13T16:28:38.237Z,3.92
2018-04-13T16:31:06.626Z,3.67
2018-04-13T16:33:35.032Z,4.18
2018-04-13T16:36:03.417Z,3.70
2018-04-13T16:38:32.647Z,3.75
2018-04-13T16:41:01.798Z,3.90
2018-04-13T16:43:30.190Z,3.75
2018-04-13T16:45:58.612Z,3.65
2018-04-13T16:48:27.756Z,3.78
2018-04-13T16:50:56.176Z,4.00
2018-04-13T16:53:25.318Z,3.60
2018-04-13T16:55:53.756Z,3.42
2018-04-13T16:58:22.909Z,3.83
2018-04-13T17:00:51.285Z,3.53
2018-04-13T17:03:19.702Z,3.20
2018-04-13T17:05:48.846Z,3.33
2018-04-13T17:08:17.254Z,3.00
2018-04-13T17:10:45.629Z,4.05
2018-04-13T17:13:14.339Z,4.12
2018-04-13T17:15:43.486Z,4.10
2018-04-13T17:18:11.874Z,5.03
2018-04-13T17:20:40.273Z,3.42
2018-04-13T17:23:08.652Z,3.25
2018-04-13T17:25:37.053Z,3.28
2018-04-13T17:28:06.200Z,2.90
2018-04-13T17:30:34.625Z,2.83
2018-04-13T17:33:03.768Z,3.12
2018-04-13T17:35:32.277Z,2.90
2018-04-13T17:38:00.934Z,3.78
2018-04-13T17:40:29.541Z,3.60
2018-04-13T17:42:57.969Z,2.87
2018-04-13T17:45:26.349Z,2.70
2018-04-13T17:47:55.165Z,3.30
2018-04-13T17:50:23.545Z,2.55
2018-04-13T17:52:51.929Z,3.22
2018-04-13T17:55:20.337Z,3.12
2018-04-13T17:57:48.901Z,4.32
2018-04-13T18:00:17.318Z,3.20
2018-04-13T18:02:46.465Z,3.50
2018-04-13T18:05:14.871Z,3.20
2018-04-13T18:07:43.252Z,3.45
2018-04-13T18:10:13.136Z,4.40
2018-04-13T18:12:41.540Z,3.85
2018-04-13T18:15:09.937Z,4.18
2018-04-13T18:17:38.365Z,3.70
2018-04-13T18:20:06.750Z,2.90
2018-04-13T18:22:35.662Z,3.40
2018-04-13T18:25:04.040Z,3.45
2018-04-13T18:27:32.512Z,4.03
2018-04-13T18:30:00.925Z,4.20
2018-04-13T18:32:29.300Z,3.87
2018-04-13T18:34:57.699Z,3.60
2018-04-13T18:37:26.845Z,4.00
2018-04-13T18:39:55.430Z,3.95
2018-04-13T18:42:25.353Z,3.30
2018-04-13T18:44:53.815Z,3.97
2018-04-13T18:47:22.281Z,3.72
2018-04-13T18:49:50.734Z,4.05
2018-04-13T18:52:19.933Z,3.10
2018-04-13T18:54:50.078Z,3.40
2018-04-13T18:57:18.847Z,3.40
2018-04-13T18:59:47.315Z,4.00
2018-04-13T19:02:16.464Z,3.10
2018-04-13T19:04:44.877Z,3.87
2018-04-13T19:07:13.419Z,3.95
2018-04-13T19:09:41.832Z,5.50
2018-04-13T19:12:10.585Z,4.40
2018-04-13T19:14:39.065Z,4.05
2018-04-13T19:17:07.417Z,5.05
2018-04-13T19:19:35.796Z,5.28
2018-04-13T19:22:05.044Z,5.87
2018-04-13T19:24:34.235Z,5.60
2018-04-13T19:27:02.649Z,5.22
2018-04-13T19:29:31.897Z,4.62
2018-04-13T19:32:00.908Z,4.80
2018-04-13T19:34:29.292Z,4.05
2018-04-13T19:36:58.507Z,4.72
2018-04-13T19:39:29.845Z,3.95
2018-04-13T19:41:58.242Z,4.20
2018-04-13T19:44:27.418Z,4.78
2018-04-13T19:46:55.971Z,5.25
2018-04-13T19:49:24.657Z,5.15
2018-04-13T19:51:53.424Z,4.53
2018-04-13T19:54:22.194Z,4.37
2018-04-13T19:56:50.900Z,4.25
2018-04-13T19:59:20.244Z,5.05
2018-04-13T20:01:49.030Z,4.30
2018-04-13T20:04:18.320Z,4.20
2018-04-13T20:06:47.541Z,4.15
2018-04-13T20:09:15.957Z,4.68
2018-04-13T20:11:44.369Z,4.32
2018-04-13T20:14:20.147Z,4.95
2018-04-13T20:16:48.671Z,8.60
2018-04-13T20:19:17.084Z,16.48
2018-04-13T20:21:45.619Z,5.10
2018-04-13T20:24:14.814Z,4.50
2018-04-13T20:26:43.960Z,3.87
2018-04-13T20:29:12.411Z,4.10
2018-04-13T20:31:41.835Z,4.62
2018-04-13T20:34:12.762Z,3.90
2018-04-13T20:36:41.268Z,3.70
2018-04-13T20:39:10.443Z,4.35
2018-04-13T20:41:39.755Z,3.87
2018-04-13T20:44:09.977Z,4.62
2018-04-13T20:46:39.435Z,3.95
2018-04-13T20:49:08.771Z,4.60
2018-04-13T20:51:37.157Z,4.62
2018-04-13T20:54:05.659Z,4.00
2018-04-13T20:56:34.288Z,4.28
2018-04-13T20:59:03.736Z,4.37
2018-04-13T21:01:32.144Z,4.70
2018-04-13T21:04:01.591Z,5.45
2018-04-13T21:06:33.121Z,4.70
2018-04-13T21:09:01.728Z,4.45
2018-04-13T21:11:30.911Z,4.22
2018-04-13T21:13:59.294Z,4.97
2018-04-13T21:16:29.464Z,4.45
2018-04-13T21:18:57.933Z,5.28
2018-04-13T21:21:26.346Z,12.20
2018-04-13T21:23:56.139Z,9.52
2018-04-13T21:26:24.707Z,8.18
2018-04-13T21:28:53.093Z,6.43
2018-04-13T21:31:21.762Z,6.12
2018-04-13T21:33:51.566Z,5.95
2018-04-13T21:36:22.668Z,5.93
2018-04-13T21:38:51.245Z,5.50
2018-04-13T21:41:20.390Z,5.78
2018-04-13T21:43:49.458Z,6.45
2018-04-13T21:46:18.169Z,5.30
2018-04-13T21:48:47.581Z,6.28
2018-04-13T21:51:16.014Z,6.18
2018-04-13T21:53:44.406Z,5.32
2018-04-13T21:56:12.811Z,6.60
2018-04-13T21:58:41.201Z,7.03
2018-04-13T22:01:09.744Z,6.47
2018-04-13T22:03:38.136Z,6.47
2018-04-13T22:06:06.512Z,6.87
2018-04-13T22:08:34.939Z,6.32
2018-04-13T22:11:03.317Z,6.70
2018-04-13T22:13:31.723Z,6.68
2018-04-13T22:16:00.870Z,5.75
2018-04-13T22:18:29.291Z,7.05
2018-04-13T22:20:58.440Z,7.60
2018-04-13T22:23:27.034Z,7.18
2018-04-13T22:25:55.473Z,5.82
2018-04-13T22:28:23.850Z,6.30
2018-04-13T22:30:52.257Z,6.50
2018-04-13T22:33:20.641Z,6.07
2018-04-13T22:35:52.227Z,7.60
2018-04-13T22:38:20.781Z,7.30
2018-04-13T22:40:49.385Z,6.75
2018-04-13T22:43:19.276Z,6.60
2018-04-13T22:45:47.653Z,6.07
2018-04-13T22:48:16.053Z,6.47
2018-04-13T22:50:44.433Z,6.75
2018-04-13T22:53:12.838Z,6.65
2018-04-13T22:55:41.992Z,6.85
2018-04-13T22:58:10.907Z,6.72
2018-04-13T23:00:39.478Z,6.95
2018-04-13T23:03:07.860Z,7.25
2018-04-13T23:05:39.264Z,7.30
2018-04-13T23:08:08.582Z,6.62
2018-04-13T23:10:36.984Z,6.80
2018-04-13T23:13:05.362Z,5.40
2018-04-13T23:15:34.127Z,6.07
2018-04-13T23:18:05.806Z,6.80
2018-04-13T23:20:34.492Z,6.85
2018-04-13T23:23:02.897Z,6.93
2018-04-13T23:25:32.034Z,7.10
2018-04-13T23:28:00.451Z,7.25
2018-04-13T23:30:28.901Z,7.62
2018-04-13T23:32:57.691Z,7.60
2018-04-13T23:35:26.097Z,8.00
2018-04-13T23:37:54.596Z,8.48
2018-04-13T23:40:23.772Z,6.82
2018-04-13T23:42:52.152Z,7.95
2018-04-13T23:45:21.371Z,7.10
2018-04-13T23:47:51.289Z,7.50
2018-04-13T23:50:20.460Z,6.90
2018-04-13T23:52:48.852Z,7.95
2018-04-13T23:55:17.993Z,7.18
2018-04-13T23:57:46.409Z,7.75
